SEMTSEGU

Guest
Details From SEMT - ELOY ALFARO INTL
To SEGU - Guayauqiil - Simon Bolivar Intl
Flight Number -
Tags generated
Created
Modified
Stats Distance 87 nm / 161 km
Max Altitude 8,100 ft / 2,469 m
Waypoints 4
Social Downloads 0
Likes 0
Share VATSIM

Download

Looking for another format? Having issues loading an existing format? Contact us
Advertisement - Login to hide

Notes

Basic altitude profile: - Ascent Rate: 2500ft/min - Ascent Speed: 250kts - Cruise Altitude: 35000ft - Cruise Speed: 420kts - Descent Rate: 1500ft/min - Descent Speed: 250kts Options: - Use NATs: yes - Use PACOTS: yes - Use low airways: yes - Use high airways: yes

Route

SEMT LPILA W6 ROGEN SEGU

ID Type Via Altitude Latitude Longitude Leg Dist Tot Dist Heading (true) Name
O SEMT APT - 0 ft / 0 m -0.94608˚ -80.67881˚ - 0 nm - ELOY ALFARO INTL
LPILA FIX - 7,100 ft / 2,164 m -1.21333˚ -80.47889˚ 20 nm 20 nm 143° / 143° -
ROGEN FIX W6 (AWY-LO) 8,100 ft / 2,469 m -1.61361˚ -80.21056˚ 28 nm 48 nm 146° / 146° -
O SEGU APT - 0 ft / 0 m -2.15742˚ -79.88356˚ 38 nm 87 nm 149° / 149° Guayauqiil - Simon Bolivar Intl

Altitude Profile

Advertisement - Login to hide

SEMT

Details ICAO SEMT (MEC)
Name ELOY ALFARO INTL
Region Equador
Timezone America/Guayaquil (UTC-5.0)
Stats Elevation 48 ft / 15 m (AMSL)
Location -0.946078° -80.678807°
Runways 1
Magnetic Variation 1.865° W

METAR

SEMT 171800Z 20008KT 9999 OVC020 28/22 Q1010 RMK A2983

Decode

TAF

Not found

Departure Runways

ID Width Length Bearing (true) Bearing (mag) Surface Threshold Offset Overrun Length
05 148 ft / 45 m 9,384 ft / 2,860 m 55.66° 57.52° Asphalt 0 ft / 0 m 470 ft / 143 m
23 148 ft / 45 m 9,384 ft / 2,860 m 235.66° 237.52° Asphalt 0 ft / 0 m 980 ft / 299 m

SEGU

Details ICAO SEGU (GYE)
Name Guayauqiil - Simon Bolivar Intl
Region Equador
Timezone America/Guayaquil (UTC-5.0)
Stats Elevation 19 ft / 6 m (AMSL)
Location -2.157419° -79.883559°
Runways 1
Magnetic Variation 2.151° W

METAR

SEGU 171800Z 11004KT 070V150 9999 FEW026 BKN100 31/20 Q1008 NOSIG RMK A2978

Decode

TAF

Not found

Destination Runways

ID Width Length Bearing (true) Bearing (mag) Surface Threshold Offset Overrun Length
03 151 ft / 46 m 9,184 ft / 2,799 m 30.43° 32.58° Asphalt 338 ft / 103 m 280 ft / 85 m
21 151 ft / 46 m 9,184 ft / 2,799 m 210.43° 212.58° Asphalt 810 ft / 247 m 230 ft / 70 m

Approach Navaids

Runway Type Ident Frequency Range Bearing (true) Bearing (mag) Slope Elevation
21 Localiser ILG 110.30 MHz 18 nm / 33 km 210.13° 212.28° - 17 ft / 5 m (AMSL)
21 Glidescope ILG 110.30 MHz 10 nm / 19 km 210.43° 212.58° 3.00° 17 ft / 5 m (AMSL)
21 DME ILG 110.30 MHz 18 nm / 33 km - - - 19 ft / 6 m (AMSL)

Popular Alternatives